Time;durP1;ratioP1;P1;durP2;ratioP2;P2;SDS_P1;SDS_P2;PMS_P1;PMS_P2;Temp;Humidity;BMP_temperature;BMP_pressure;BME280_temperature;BME280_humidity;BME280_pressure;Samples;Min_cycle;Max_cycle;Signal;HPM_P1;HPM_P2
2023/12/02 00:01:36;;;;;;;4.33;2.97;;;4.10;99.90;;;;;;7392016;19;20238;-81
2023/12/02 00:04:02;;;;;;;2.53;2.27;;;4.20;99.90;;;;;;7395735;19;20149;-81
2023/12/02 00:06:28;;;;;;;4.90;3.23;;;4.20;99.90;;;;;;7391860;19;20154;-79
2023/12/02 00:08:53;;;;;;;2.47;2.27;;;4.20;99.90;;;;;;7392280;19;20612;-79
2023/12/02 00:11:19;;;;;;;2.37;2.17;;;4.10;99.90;;;;;;7392870;19;20156;-81
2023/12/02 00:13:46;;;;;;;3.47;2.37;;;4.20;99.90;;;;;;7395529;19;20478;-79
2023/12/02 00:16:12;;;;;;;3.40;2.33;;;4.20;99.90;;;;;;7390421;19;20266;-80
2023/12/02 00:18:38;;;;;;;3.37;3.07;;;4.20;99.90;;;;;;7395737;19;20591;-80
2023/12/02 00:21:03;;;;;;;2.77;2.50;;;4.20;99.90;;;;;;7391523;19;20710;-80
2023/12/02 00:23:29;;;;;;;4.03;2.67;;;4.20;99.90;;;;;;7391819;19;20163;-80
2023/12/02 00:25:55;;;;;;;2.27;1.90;;;3.90;99.90;;;;;;7391472;19;20157;-81
2023/12/02 00:28:21;;;;;;;2.10;1.90;;;4.10;99.90;;;;;;7394346;19;20142;-80
2023/12/02 00:30:48;;;;;;;2.77;2.53;;;4.10;99.90;;;;;;7393804;19;20479;-80
2023/12/02 00:33:14;;;;;;;3.77;2.77;;;4.10;99.90;;;;;;7393514;19;20205;-80
2023/12/02 00:35:40;;;;;;;3.47;2.50;;;4.20;99.90;;;;;;7390670;19;20167;-79
2023/12/02 00:38:06;;;;;;;3.13;2.70;;;4.00;99.90;;;;;;7391791;19;20147;-80
2023/12/02 00:40:32;;;;;;;2.10;1.77;;;3.90;99.90;;;;;;7393384;19;20150;-80
2023/12/02 00:42:57;;;;;;;2.00;1.77;;;3.90;99.90;;;;;;7389978;19;20181;-80
2023/12/02 00:45:23;;;;;;;3.07;2.87;;;3.80;99.90;;;;;;7390337;19;20157;-80
2023/12/02 00:47:49;;;;;;;2.73;2.13;;;3.80;99.90;;;;;;7392358;19;20138;-80
2023/12/02 00:50:14;;;;;;;4.80;2.30;;;3.80;99.90;;;;;;7392508;19;20138;-79
2023/12/02 00:52:40;;;;;;;2.60;2.40;;;3.80;99.90;;;;;;7395685;19;20138;-81
2023/12/02 00:55:06;;;;;;;2.70;2.40;;;3.90;99.90;;;;;;7391422;19;20475;-79
2023/12/02 00:57:33;;;;;;;3.47;2.90;;;3.80;99.90;;;;;;7392752;19;20146;-79
2023/12/02 00:59:59;;;;;;;2.30;2.10;;;3.90;99.90;;;;;;7392943;19;20143;-80
2023/12/02 01:02:25;;;;;;;2.43;1.90;;;3.80;99.90;;;;;;7392493;19;20218;-80
2023/12/02 01:04:51;;;;;;;3.40;2.20;;;3.70;99.90;;;;;;7393521;19;20740;-82
2023/12/02 01:07:16;;;;;;;3.53;2.40;;;3.80;99.90;;;;;;7393417;19;20153;-79
2023/12/02 01:09:42;;;;;;;3.13;1.90;;;3.80;99.90;;;;;;7391207;19;20613;-81
2023/12/02 01:12:08;;;;;;;3.90;2.33;;;3.80;99.90;;;;;;7393404;19;20469;-81
2023/12/02 01:14:33;;;;;;;3.07;2.50;;;3.80;99.90;;;;;;7390536;19;20169;-80
2023/12/02 01:17:00;;;;;;;2.20;1.83;;;3.90;99.90;;;;;;7392166;19;20197;-80
2023/12/02 01:19:25;;;;;;;2.97;2.67;;;3.90;99.90;;;;;;7391542;19;20135;-79
2023/12/02 01:21:51;;;;;;;2.80;2.43;;;3.80;99.90;;;;;;7388620;19;20123;-80
2023/12/02 01:24:17;;;;;;;2.90;2.43;;;3.80;99.90;;;;;;7387815;19;22513;-80
2023/12/02 01:26:43;;;;;;;3.33;2.57;;;3.80;99.90;;;;;;7390045;19;20146;-80
2023/12/02 01:29:09;;;;;;;2.23;1.87;;;3.70;99.90;;;;;;7388959;19;20160;-79
2023/12/02 01:31:34;;;;;;;3.57;2.07;;;3.70;99.90;;;;;;7392573;19;20165;-80
2023/12/02 01:34:00;;;;;;;3.93;2.80;;;3.70;99.90;;;;;;7391411;19;20134;-81
2023/12/02 01:36:26;;;;;;;3.03;2.10;;;3.60;99.90;;;;;;7391084;19;20218;-80
2023/12/02 01:38:52;;;;;;;2.87;2.27;;;3.70;99.90;;;;;;7390038;19;20150;-78
2023/12/02 01:41:17;;;;;;;3.00;2.70;;;3.60;99.90;;;;;;7390121;19;20131;-79
2023/12/02 01:43:44;;;;;;;2.33;2.13;;;3.60;99.90;;;;;;7388665;19;20614;-80
2023/12/02 01:46:14;;;;;;;2.87;2.57;;;3.70;99.90;;;;;;7390415;19;20235;-79
2023/12/02 01:48:40;;;;;;;4.63;3.37;;;3.70;99.90;;;;;;7390203;19;20516;-80
2023/12/02 01:51:07;;;;;;;2.70;2.50;;;3.80;99.90;;;;;;7390234;19;20149;-79
2023/12/02 01:53:33;;;;;;;2.37;1.80;;;3.60;99.90;;;;;;7387791;19;20138;-79
2023/12/02 01:55:58;;;;;;;3.93;3.20;;;3.60;99.90;;;;;;7388533;19;20236;-78
2023/12/02 01:58:24;;;;;;;3.70;2.80;;;3.50;99.90;;;;;;7389290;19;20742;-78
2023/12/02 02:00:50;;;;;;;3.33;2.90;;;3.50;99.90;;;;;;7390428;19;20504;-79
2023/12/02 02:03:16;;;;;;;3.00;2.03;;;3.50;99.90;;;;;;7389042;19;20564;-78
2023/12/02 02:05:44;;;;;;;2.80;2.47;;;3.70;99.90;;;;;;7390573;19;20140;-80
2023/12/02 02:08:10;;;;;;;3.33;2.97;;;3.70;99.90;;;;;;7388541;19;20126;-80
2023/12/02 02:10:35;;;;;;;2.03;1.87;;;3.70;99.90;;;;;;7390633;19;20206;-79
2023/12/02 02:13:01;;;;;;;2.07;1.53;;;3.70;99.90;;;;;;7390258;19;20142;-80
2023/12/02 02:15:27;;;;;;;3.27;2.23;;;3.70;99.90;;;;;;7390513;19;20147;-80
2023/12/02 02:17:53;;;;;;;3.23;2.90;;;3.60;99.90;;;;;;7387404;19;20138;-78
2023/12/02 02:20:18;;;;;;;2.80;2.40;;;3.60;99.90;;;;;;7387669;19;20138;-79
2023/12/02 02:22:44;;;;;;;2.73;2.47;;;3.50;99.90;;;;;;7386933;19;20167;-79
2023/12/02 02:25:10;;;;;;;3.27;2.93;;;3.30;99.90;;;;;;7389036;19;20143;-79
2023/12/02 02:27:36;;;;;;;3.00;2.57;;;3.40;99.90;;;;;;7388745;19;20199;-79
2023/12/02 02:30:01;;;;;;;2.60;2.07;;;3.40;99.90;;;;;;7390026;19;20255;-81
2023/12/02 02:32:27;;;;;;;5.20;3.40;;;3.40;99.90;;;;;;7389808;19;20138;-79
2023/12/02 02:34:53;;;;;;;3.30;2.20;;;3.40;99.90;;;;;;7388490;19;20145;-79
2023/12/02 02:37:19;;;;;;;3.50;2.70;;;3.30;99.90;;;;;;7388088;19;20135;-79
2023/12/02 02:39:44;;;;;;;3.23;2.93;;;3.10;99.90;;;;;;7390815;19;20159;-79
2023/12/02 02:42:11;;;;;;;1.80;1.63;;;3.10;99.90;;;;;;7387197;19;20319;-79
2023/12/02 02:44:40;;;;;;;3.37;2.13;;;3.20;99.90;;;;;;7389097;19;20174;-82
2023/12/02 02:47:06;;;;;;;3.03;2.50;;;3.40;99.90;;;;;;7390041;19;20151;-79
2023/12/02 02:49:32;;;;;;;2.13;1.93;;;3.60;99.90;;;;;;7381942;19;20134;-80
2023/12/02 02:51:58;;;;;;;3.47;2.10;;;3.60;99.90;;;;;;7388431;19;20155;-80
2023/12/02 02:54:24;;;;;;;2.27;1.97;;;3.60;99.90;;;;;;7388145;19;20173;-79
2023/12/02 02:56:51;;;;;;;2.97;2.67;;;3.70;99.90;;;;;;7388589;19;20131;-79
2023/12/02 02:59:17;;;;;;;3.60;1.93;;;3.60;99.90;;;;;;7388281;19;20150;-77
2023/12/02 03:01:45;;;;;;;2.60;1.73;;;3.60;99.90;;;;;;7386682;19;20131;-80
2023/12/02 03:04:11;;;;;;;3.43;1.93;;;3.70;99.90;;;;;;7390014;19;20202;-80
2023/12/02 03:06:38;;;;;;;3.30;2.93;;;3.70;99.90;;;;;;7389756;19;20234;-81
2023/12/02 03:09:05;;;;;;;2.87;2.57;;;3.70;99.90;;;;;;7387091;19;20170;-77
2023/12/02 03:11:32;;;;;;;3.97;3.07;;;3.50;99.90;;;;;;7388952;19;20488;-80
2023/12/02 03:13:58;;;;;;;1.87;1.70;;;3.40;99.90;;;;;;7389817;19;20447;-80
2023/12/02 03:16:24;;;;;;;2.70;1.87;;;3.00;99.90;;;;;;7387778;19;20163;-78
2023/12/02 03:18:49;;;;;;;7.60;4.00;;;3.00;99.90;;;;;;7389481;19;20587;-79
2023/12/02 03:21:15;;;;;;;2.27;1.73;;;3.10;99.90;;;;;;7385600;19;20154;-79
2023/12/02 03:23:41;;;;;;;4.17;2.50;;;3.10;99.90;;;;;;7389373;19;20135;-80
2023/12/02 03:26:07;;;;;;;2.53;2.17;;;3.10;99.90;;;;;;7388071;19;20578;-79
2023/12/02 03:28:34;;;;;;;2.90;2.27;;;3.10;99.90;;;;;;7388682;19;20130;-79
2023/12/02 03:31:01;;;;;;;2.87;2.30;;;3.00;99.90;;;;;;7386577;19;20138;-79
2023/12/02 03:33:26;;;;;;;3.40;2.60;;;2.90;99.90;;;;;;7397036;19;20139;-80
2023/12/02 03:35:52;;;;;;;6.37;4.27;;;3.00;99.90;;;;;;7393518;19;20142;-79
2023/12/02 03:38:18;;;;;;;2.47;2.17;;;3.00;99.90;;;;;;7392862;19;20154;-79
2023/12/02 03:40:43;;;;;;;2.37;1.93;;;2.90;99.90;;;;;;7393872;19;20163;-79
2023/12/02 03:43:09;;;;;;;3.77;1.70;;;2.90;99.90;;;;;;7392360;19;20609;-79
2023/12/02 03:45:35;;;;;;;3.70;3.20;;;2.90;99.90;;;;;;7396317;19;20145;-79
2023/12/02 03:48:03;;;;;;;4.07;3.67;;;3.00;99.90;;;;;;7396992;19;20153;-79
2023/12/02 03:50:29;;;;;;;2.43;2.23;;;3.00;99.90;;;;;;7394611;19;20157;-79
2023/12/02 03:52:54;;;;;;;1.80;1.70;;;3.00;99.90;;;;;;7396171;19;20134;-80
2023/12/02 03:55:20;;;;;;;1.60;1.50;;;3.10;99.90;;;;;;7394270;19;20162;-78
2023/12/02 03:57:46;;;;;;;2.43;2.23;;;3.00;99.90;;;;;;7393560;19;20146;-80
2023/12/02 04:00:15;;;;;;;3.50;2.80;;;3.00;99.90;;;;;;7393082;19;20315;-80
2023/12/02 04:02:43;;;;;;;3.10;2.70;;;3.00;99.90;;;;;;7391511;19;20142;-78
2023/12/02 04:05:10;;;;;;;2.93;1.87;;;2.90;99.90;;;;;;7394268;19;20153;-76
2023/12/02 04:07:37;;;;;;;1.93;1.83;;;2.90;99.90;;;;;;7393408;19;20732;-79
2023/12/02 04:10:03;;;;;;;2.27;2.10;;;3.10;99.90;;;;;;7393657;19;20142;-78
2023/12/02 04:12:33;;;;;;;2.97;2.30;;;3.10;99.90;;;;;;7393025;19;20163;-80
2023/12/02 04:14:59;;;;;;;1.43;1.20;;;3.10;99.90;;;;;;7392463;19;20156;-79
2023/12/02 04:17:24;;;;;;;2.77;2.40;;;3.10;99.90;;;;;;7391058;19;20146;-78
2023/12/02 04:19:50;;;;;;;3.63;2.63;;;3.10;99.90;;;;;;7393532;19;20155;-78
2023/12/02 04:22:19;;;;;;;2.50;2.10;;;3.20;99.90;;;;;;7390123;19;20160;-78
2023/12/02 04:24:45;;;;;;;1.57;1.47;;;3.30;99.90;;;;;;7392134;19;20146;-80
2023/12/02 04:27:11;;;;;;;3.17;2.87;;;3.20;99.90;;;;;;7391984;19;20587;-78
2023/12/02 04:29:41;;;;;;;2.33;2.03;;;3.20;99.90;;;;;;7393251;19;20244;-79
2023/12/02 04:32:10;;;;;;;1.57;1.47;;;3.00;99.90;;;;;;7395019;19;20272;-80
2023/12/02 04:34:36;;;;;;;2.97;2.33;;;3.00;99.90;;;;;;7392612;19;20692;-79
2023/12/02 04:37:02;;;;;;;2.03;1.70;;;2.90;99.90;;;;;;7392881;19;20162;-79
2023/12/02 04:39:29;;;;;;;2.53;2.33;;;3.00;99.90;;;;;;7391354;19;20151;-78
2023/12/02 04:41:54;;;;;;;2.20;2.07;;;3.00;99.90;;;;;;7392278;19;20186;-79
2023/12/02 04:44:20;;;;;;;2.77;2.20;;;3.10;99.90;;;;;;7386147;19;20150;-79
2023/12/02 04:46:46;;;;;;;2.97;1.93;;;3.10;99.90;;;;;;7391109;19;20126;-78
2023/12/02 04:49:12;;;;;;;1.63;1.53;;;3.00;99.90;;;;;;7392382;19;20159;-79
2023/12/02 04:51:38;;;;;;;1.53;1.43;;;3.00;99.90;;;;;;7392119;19;20738;-77
2023/12/02 04:54:04;;;;;;;2.47;2.07;;;2.90;99.90;;;;;;7391312;19;20624;-78
2023/12/02 04:56:30;;;;;;;2.37;1.73;;;2.90;99.90;;;;;;7391609;19;20206;-79
2023/12/02 04:58:56;;;;;;;1.53;1.43;;;2.90;99.90;;;;;;7390524;19;20178;-78
2023/12/02 05:01:22;;;;;;;1.13;1.03;;;3.00;99.90;;;;;;7392289;19;20131;-79
2023/12/02 05:03:48;;;;;;;1.67;1.57;;;3.00;99.90;;;;;;7394893;19;20172;-79
2023/12/02 05:06:17;;;;;;;3.57;1.87;;;3.00;99.90;;;;;;7392313;19;20127;-79
2023/12/02 05:08:47;;;;;;;1.57;1.30;;;2.80;99.90;;;;;;7392149;19;20142;-79
2023/12/02 05:11:20;;;;;;;2.30;2.10;;;2.80;99.90;;;;;;7392359;19;20147;-79
2023/12/02 05:13:47;;;;;;;1.13;1.03;;;2.90;99.90;;;;;;7392134;19;20123;-79
2023/12/02 05:16:13;;;;;;;1.50;1.40;;;2.90;99.90;;;;;;7390496;19;20130;-79
2023/12/02 05:18:43;;;;;;;2.57;2.17;;;3.00;99.90;;;;;;7391515;19;20266;-79
2023/12/02 05:21:11;;;;;;;2.57;2.03;;;3.00;99.90;;;;;;7388117;19;20227;-80
2023/12/02 05:23:38;;;;;;;3.07;2.53;;;3.10;99.90;;;;;;7391632;19;20138;-79
2023/12/02 05:26:06;;;;;;;1.70;1.60;;;3.10;99.90;;;;;;7392156;19;20131;-79
2023/12/02 05:28:32;;;;;;;2.73;2.53;;;3.10;99.90;;;;;;7393056;19;20506;-81
2023/12/02 05:30:58;;;;;;;1.93;1.50;;;3.00;99.90;;;;;;7391552;19;20166;-79
2023/12/02 05:33:24;;;;;;;2.37;2.10;;;2.90;99.90;;;;;;7393276;19;20615;-78
2023/12/02 05:35:50;;;;;;;2.03;1.93;;;3.00;99.90;;;;;;7390093;19;20220;-79
2023/12/02 05:38:16;;;;;;;1.50;1.40;;;3.00;99.90;;;;;;7391406;19;20131;-78
2023/12/02 05:40:42;;;;;;;2.30;1.87;;;2.90;99.90;;;;;;7387507;19;20137;-78
2023/12/02 05:43:08;;;;;;;2.40;2.10;;;2.90;99.90;;;;;;7391489;19;20241;-79
2023/12/02 05:45:34;;;;;;;2.83;2.30;;;2.80;99.90;;;;;;7391214;19;20514;-78
2023/12/02 05:47:59;;;;;;;1.40;1.03;;;2.80;99.90;;;;;;7391181;19;20542;-78
2023/12/02 05:50:26;;;;;;;1.97;1.73;;;2.70;99.90;;;;;;7390623;19;20146;-79
2023/12/02 05:52:52;;;;;;;1.87;1.10;;;2.70;99.90;;;;;;7392198;19;20143;-79
2023/12/02 05:55:17;;;;;;;2.27;2.07;;;2.70;99.90;;;;;;7386574;19;20595;-78
2023/12/02 05:57:46;;;;;;;1.50;1.40;;;2.70;99.90;;;;;;7389986;19;20173;-79
2023/12/02 06:00:16;;;;;;;1.47;1.17;;;2.70;99.90;;;;;;7389018;19;20138;-79
2023/12/02 06:02:42;;;;;;;2.13;2.03;;;2.80;99.90;;;;;;7391239;19;20166;-80
2023/12/02 06:05:08;;;;;;;2.60;1.63;;;2.70;99.90;;;;;;7390909;19;20627;-80
2023/12/02 06:07:34;;;;;;;1.00;0.83;;;2.70;99.90;;;;;;7389217;19;20690;-78
2023/12/02 06:09:59;;;;;;;2.13;1.93;;;2.70;99.90;;;;;;7388862;19;20227;-78
2023/12/02 06:12:25;;;;;;;1.10;1.00;;;2.80;99.90;;;;;;7390971;19;20191;-79
2023/12/02 06:14:51;;;;;;;1.80;1.20;;;2.80;99.90;;;;;;7389873;19;20138;-78
2023/12/02 06:17:17;;;;;;;2.30;1.73;;;2.90;99.90;;;;;;7389177;19;20218;-79
2023/12/02 06:19:42;;;;;;;2.40;1.67;;;2.90;99.90;;;;;;7390052;19;20575;-78
2023/12/02 06:22:08;;;;;;;2.47;2.27;;;2.90;99.90;;;;;;7390194;19;20518;-79
2023/12/02 06:24:34;;;;;;;1.77;1.40;;;2.90;99.90;;;;;;7389109;19;20143;-80
2023/12/02 06:27:00;;;;;;;1.40;1.30;;;2.80;99.90;;;;;;7388022;19;20537;-78
2023/12/02 06:29:26;;;;;;;3.03;1.87;;;2.70;99.90;;;;;;7388513;19;20152;-78
2023/12/02 06:31:52;;;;;;;1.53;1.43;;;2.80;99.90;;;;;;7390057;19;20568;-79
2023/12/02 06:34:18;;;;;;;1.67;1.53;;;2.80;99.90;;;;;;7388008;19;20135;-79
2023/12/02 06:36:44;;;;;;;2.57;1.97;;;2.90;99.90;;;;;;7389086;19;20126;-79
2023/12/02 06:39:12;;;;;;;1.80;1.37;;;3.00;99.90;;;;;;7390323;19;20163;-78
2023/12/02 06:41:38;;;;;;;2.77;1.97;;;3.10;99.90;;;;;;7388743;19;20135;-78
2023/12/02 06:44:04;;;;;;;1.53;1.10;;;2.90;99.90;;;;;;7390453;19;20151;-79
2023/12/02 06:46:30;;;;;;;1.83;1.50;;;2.70;99.90;;;;;;7388814;19;20241;-77
2023/12/02 06:48:56;;;;;;;3.37;2.50;;;2.70;99.90;;;;;;7387266;19;20209;-78
2023/12/02 06:51:23;;;;;;;2.83;1.83;;;2.70;99.90;;;;;;7389992;19;20163;-79
2023/12/02 06:53:49;;;;;;;2.03;1.67;;;2.70;99.90;;;;;;7387620;19;20154;-79
2023/12/02 06:56:19;;;;;;;2.90;1.93;;;2.60;99.90;;;;;;7390177;19;20135;-80
2023/12/02 06:58:45;;;;;;;1.57;1.40;;;2.60;99.90;;;;;;7389240;19;20138;-79
2023/12/02 07:01:21;;;;;;;1.63;1.50;;;2.40;99.90;;;;;;7386558;19;20141;-79
2023/12/02 07:03:46;;;;;;;2.90;2.50;;;2.40;99.90;;;;;;7389715;19;20130;-77
2023/12/02 07:06:12;;;;;;;1.70;1.57;;;2.40;99.90;;;;;;7387407;19;20167;-79
2023/12/02 07:08:38;;;;;;;3.17;2.00;;;2.40;99.90;;;;;;7396736;19;20148;-79
2023/12/02 07:11:04;;;;;;;1.30;1.20;;;2.30;99.90;;;;;;7394264;19;20170;-78
2023/12/02 07:13:29;;;;;;;1.43;1.33;;;2.30;99.90;;;;;;7396135;19;20142;-78
2023/12/02 07:15:55;;;;;;;2.50;2.30;;;2.40;99.90;;;;;;7393059;19;20130;-77
2023/12/02 07:18:21;;;;;;;1.63;1.53;;;2.50;99.90;;;;;;7396466;19;20488;-79
2023/12/02 07:20:46;;;;;;;2.30;1.70;;;2.40;99.90;;;;;;7393015;19;20146;-77
2023/12/02 07:23:12;;;;;;;1.77;1.30;;;2.40;99.90;;;;;;7397794;19;20138;-79
2023/12/02 07:25:38;;;;;;;3.57;2.23;;;2.40;99.90;;;;;;7393836;19;20221;-78
2023/12/02 07:28:03;;;;;;;1.60;1.50;;;2.50;99.90;;;;;;7394305;19;20145;-78
2023/12/02 07:30:29;;;;;;;2.50;2.30;;;2.50;99.90;;;;;;7393391;19;20173;-79
2023/12/02 07:32:55;;;;;;;4.03;2.50;;;2.40;99.90;;;;;;7395917;19;20172;-77
2023/12/02 07:35:21;;;;;;;2.67;2.13;;;2.40;99.90;;;;;;7393474;19;20149;-77
2023/12/02 07:37:49;;;;;;;2.90;1.70;;;2.40;99.90;;;;;;7392077;19;20130;-76
2023/12/02 07:40:15;;;;;;;4.07;2.40;;;2.30;99.90;;;;;;7392078;19;20142;-77
2023/12/02 07:42:41;;;;;;;1.77;1.53;;;2.20;99.90;;;;;;7391534;19;20174;-77
2023/12/02 07:45:07;;;;;;;1.37;1.27;;;2.20;99.90;;;;;;7391835;19;20138;-76
2023/12/02 07:47:32;;;;;;;1.80;1.70;;;2.30;99.90;;;;;;7392549;19;20173;-76
2023/12/02 07:49:58;;;;;;;1.87;1.67;;;2.50;99.90;;;;;;7392017;19;20898;-78
2023/12/02 07:52:24;;;;;;;2.03;1.90;;;1.90;99.90;;;;;;7392200;19;20146;-75
2023/12/02 07:54:49;;;;;;;2.87;2.10;;;2.30;99.90;;;;;;7391719;19;20583;-75
2023/12/02 07:57:15;;;;;;;1.60;1.23;;;2.20;99.90;;;;;;7393190;19;20155;-77
2023/12/02 07:59:41;;;;;;;3.03;1.83;;;2.00;99.90;;;;;;7391287;19;20622;-76
2023/12/02 08:02:07;;;;;;;1.93;1.83;;;2.20;99.90;;;;;;7391060;19;20155;-77
2023/12/02 08:04:32;;;;;;;1.90;1.10;;;2.20;99.90;;;;;;7391446;19;20150;-78
2023/12/02 08:06:58;;;;;;;4.47;1.70;;;2.20;99.90;;;;;;7391131;19;20139;-77
2023/12/02 08:09:24;;;;;;;3.00;2.70;;;2.30;99.90;;;;;;7392587;19;20615;-78
2023/12/02 08:11:50;;;;;;;1.43;1.30;;;2.20;99.90;;;;;;7393568;19;20138;-78
2023/12/02 08:14:15;;;;;;;1.17;1.10;;;2.20;99.90;;;;;;7392771;19;20158;-77
2023/12/02 08:16:41;;;;;;;2.10;1.90;;;2.30;99.90;;;;;;7392722;19;20453;-78
2023/12/02 08:19:07;;;;;;;1.10;1.10;;;2.30;99.90;;;;;;7389675;19;20187;-79
2023/12/02 08:21:32;;;;;;;1.40;1.30;;;2.40;99.90;;;;;;7393904;19;20616;-76
2023/12/02 08:24:00;;;;;;;2.73;2.53;;;2.40;99.90;;;;;;7391396;19;20726;-79
2023/12/02 08:26:26;;;;;;;2.63;1.73;;;2.40;99.90;;;;;;7393811;19;20142;-77
2023/12/02 08:28:51;;;;;;;3.43;2.60;;;2.50;99.90;;;;;;7390775;19;20157;-76
2023/12/02 08:31:17;;;;;;;1.10;1.00;;;2.50;99.90;;;;;;7392769;19;20227;-78
2023/12/02 08:33:43;;;;;;;2.80;2.57;;;2.50;99.90;;;;;;7390889;19;20131;-76
2023/12/02 08:36:09;;;;;;;2.43;2.20;;;2.60;99.90;;;;;;7392218;19;20167;-77
2023/12/02 08:38:35;;;;;;;2.90;2.70;;;2.60;99.90;;;;;;7388149;19;20163;-77
2023/12/02 08:41:00;;;;;;;2.07;1.83;;;2.60;99.90;;;;;;7389018;19;20146;-80
2023/12/02 08:43:29;;;;;;;2.33;1.43;;;2.50;99.90;;;;;;7378122;19;20178;-78
2023/12/02 08:45:55;;;;;;;2.53;1.60;;;2.50;99.90;;;;;;7390654;19;20209;-75
2023/12/02 08:48:20;;;;;;;2.47;2.20;;;2.60;99.90;;;;;;7389579;19;20176;-77
2023/12/02 08:50:46;;;;;;;3.50;1.97;;;2.70;99.90;;;;;;7392266;19;20600;-79
2023/12/02 08:53:12;;;;;;;2.60;2.40;;;2.80;99.90;;;;;;7390893;19;20146;-78
2023/12/02 08:55:38;;;;;;;1.80;1.70;;;2.60;99.90;;;;;;7391627;19;20145;-80
2023/12/02 08:58:03;;;;;;;1.37;1.27;;;2.50;99.90;;;;;;7389113;19;20162;-77
2023/12/02 09:00:31;;;;;;;1.77;1.63;;;2.40;99.90;;;;;;7391576;19;20141;-82
2023/12/02 09:02:57;;;;;;;1.90;1.70;;;2.30;99.90;;;;;;7389654;19;20150;-80
2023/12/02 09:05:22;;;;;;;1.97;1.87;;;2.40;99.90;;;;;;7393087;19;20235;-78
2023/12/02 09:07:51;;;;;;;1.37;1.27;;;2.40;99.90;;;;;;7395870;19;20127;-79
2023/12/02 09:10:18;;;;;;;2.63;2.03;;;2.40;99.90;;;;;;7395350;19;20142;-79
2023/12/02 09:12:44;;;;;;;1.20;1.07;;;2.40;99.90;;;;;;7395031;19;20134;-80
2023/12/02 09:15:38;;;;;;;1.97;1.40;;;2.30;99.90;;;;;;7394347;19;20452;-80
2023/12/02 09:18:12;;;;;;;2.33;1.17;;;2.40;99.90;;;;;;7386473;19;20142;-78
2023/12/02 09:20:43;;;;;;;2.70;1.90;;;2.30;99.90;;;;;;7390207;19;20214;-77
2023/12/02 09:23:10;;;;;;;1.53;1.43;;;2.30;99.90;;;;;;7390869;19;20150;-77
2023/12/02 09:25:38;;;;;;;2.07;1.47;;;2.30;99.90;;;;;;7392541;19;20198;-78
2023/12/02 09:28:07;;;;;;;1.60;1.50;;;2.40;99.90;;;;;;7389150;19;20592;-77
2023/12/02 09:30:34;;;;;;;1.97;1.77;;;2.50;99.90;;;;;;7389083;19;20218;-77
2023/12/02 09:33:00;;;;;;;1.47;1.37;;;2.60;99.90;;;;;;7388835;19;20157;-77
2023/12/02 09:35:26;;;;;;;1.33;1.20;;;2.70;99.90;;;;;;7392166;19;20475;-77
2023/12/02 09:37:56;;;;;;;1.70;1.20;;;3.00;99.90;;;;;;7392598;19;20580;-77
2023/12/02 09:40:37;;;;;;;1.87;1.50;;;2.70;99.90;;;;;;7390062;19;20135;-79
2023/12/02 09:43:12;;;;;;;2.07;1.20;;;2.60;99.90;;;;;;7387846;19;20186;-78
2023/12/02 09:45:58;;;;;;;1.23;1.07;;;2.40;99.90;;;;;;7391463;19;20178;-77
2023/12/02 09:48:27;;;;;;;2.60;2.23;;;2.50;99.90;;;;;;7391737;19;20141;-78
2023/12/02 09:50:59;;;;;;;1.67;1.57;;;2.40;99.90;;;;;;7392317;19;20138;-78
2023/12/02 09:53:54;;;;;;;1.20;1.10;;;2.50;99.90;;;;;;7389747;19;20171;-81
2023/12/02 09:56:24;;;;;;;1.37;1.27;;;2.50;99.90;;;;;;7382997;19;20159;-79
2023/12/02 09:59:13;;;;;;;1.40;1.30;;;2.50;99.90;;;;;;7368607;19;20206;-79
2023/12/02 10:01:50;;;;;;;2.50;2.23;;;2.40;99.90;;;;;;7381301;19;20155;-80
2023/12/02 10:04:38;;;;;;;1.57;1.33;;;2.50;99.90;;;;;;7388287;19;20209;-78
2023/12/02 10:07:16;;;;;;;1.20;1.00;;;2.60;99.90;;;;;;7388050;19;20134;-80
2023/12/02 10:10:13;;;;;;;1.70;1.57;;;2.60;99.90;;;;;;7391767;19;20145;-79
2023/12/02 10:12:46;;;;;;;1.80;1.47;;;2.60;99.90;;;;;;7391341;19;20138;-79
2023/12/02 10:15:12;;;;;;;1.70;1.60;;;2.60;99.90;;;;;;7390010;19;20131;-79
2023/12/02 10:18:14;;;;;;;3.23;2.30;;;2.50;99.90;;;;;;7387100;19;20154;-79
2023/12/02 10:20:42;;;;;;;3.53;2.37;;;2.50;99.90;;;;;;7388454;19;20172;-79
2023/12/02 10:23:15;;;;;;;2.03;1.53;;;2.60;99.90;;;;;;7390433;19;20459;-79
2023/12/02 10:25:48;;;;;;;1.37;1.27;;;2.50;99.90;;;;;;7389081;19;20158;-79
2023/12/02 10:28:24;;;;;;;2.13;1.93;;;2.50;99.90;;;;;;7389230;19;20168;-77
2023/12/02 10:30:51;;;;;;;1.20;0.83;;;2.60;99.90;;;;;;7388239;19;20161;-79
2023/12/02 10:33:23;;;;;;;2.10;1.67;;;3.70;99.90;;;;;;7388122;19;20134;-78
2023/12/02 10:35:55;;;;;;;2.17;1.33;;;2.50;99.90;;;;;;7388544;19;20139;-78
2023/12/02 10:38:53;;;;;;;2.73;2.47;;;2.40;99.90;;;;;;7387147;19;20168;-79
2023/12/02 10:41:46;;;;;;;1.57;1.47;;;2.50;99.90;;;;;;7387059;19;20603;-79
2023/12/02 10:44:18;;;;;;;1.87;1.77;;;2.70;99.90;;;;;;7392070;19;20481;-78
2023/12/02 10:46:45;;;;;;;1.23;1.13;;;2.90;99.90;;;;;;7394947;19;20218;-79
2023/12/02 10:49:14;;;;;;;2.40;1.83;;;2.70;99.90;;;;;;7398105;19;20131;-79
2023/12/02 10:51:42;;;;;;;1.40;1.30;;;2.80;99.90;;;;;;7398437;19;20159;-79
2023/12/02 10:54:12;;;;;;;2.30;1.77;;;2.90;99.90;;;;;;7395776;19;20210;-80
2023/12/02 10:56:39;;;;;;;1.67;1.57;;;2.90;99.90;;;;;;7394630;19;20167;-76
2023/12/02 10:59:08;;;;;;;1.50;1.40;;;2.70;99.90;;;;;;7394416;19;20138;-79
2023/12/02 11:01:39;;;;;;;1.87;1.50;;;2.60;99.90;;;;;;7391988;19;20123;-79
2023/12/02 11:04:13;;;;;;;2.77;1.93;;;2.50;99.90;;;;;;7395441;19;20179;-80
2023/12/02 11:06:50;;;;;;;1.17;1.07;;;2.40;99.90;;;;;;7395446;19;20123;-78
2023/12/02 11:09:50;;;;;;;1.27;1.17;;;2.20;99.90;;;;;;7393200;19;20142;-80
2023/12/02 11:12:21;;;;;;;2.07;1.57;;;2.30;99.90;;;;;;7390161;19;20138;-81
2023/12/02 11:14:53;;;;;;;1.03;0.97;;;2.30;99.90;;;;;;7397163;19;20153;-80
2023/12/02 11:17:37;;;;;;;2.13;1.73;;;2.30;99.90;;;;;;7395167;19;20138;-79
2023/12/02 11:20:44;;;;;;;0.83;0.83;;;2.30;99.90;;;;;;7396524;19;20163;-81
2023/12/02 11:23:50;;;;;;;1.47;1.20;;;2.50;99.90;;;;;;7397177;19;20157;-79
2023/12/02 11:26:39;;;;;;;2.73;1.40;;;2.10;99.90;;;;;;7397944;19;20471;-80
2023/12/02 11:29:37;;;;;;;2.27;1.20;;;1.90;99.90;;;;;;7398099;19;20172;-80
2023/12/02 11:32:34;;;;;;;1.53;0.93;;;3.50;99.90;;;;;;7397838;19;20154;-80
2023/12/02 11:35:29;;;;;;;3.40;1.83;;;2.10;99.90;;;;;;7396208;19;20149;-79
2023/12/02 11:38:05;;;;;;;2.73;1.77;;;1.70;99.90;;;;;;7393056;19;20146;-75
2023/12/02 11:40:41;;;;;;;2.10;1.87;;;2.00;99.90;;;;;;7398243;19;20475;-78
2023/12/02 11:43:31;;;;;;;1.30;1.20;;;2.40;99.90;;;;;;7395135;19;20664;-80
2023/12/02 11:46:04;;;;;;;1.20;1.20;;;2.30;99.90;;;;;;7395969;19;20146;-76
2023/12/02 11:49:02;;;;;;;1.83;1.73;;;2.30;99.90;;;;;;7395086;19;20162;-79
2023/12/02 11:52:02;;;;;;;1.30;1.20;;;1.40;99.90;;;;;;7396709;19;20139;-80
2023/12/02 11:55:26;;;;;;;1.47;1.00;;;2.30;99.90;;;;;;7397704;19;20139;-81
2023/12/02 11:58:48;;;;;;;1.60;1.50;;;2.00;99.90;;;;;;7391470;19;20151;-80
2023/12/02 12:01:50;;;;;;;1.43;1.33;;;1.80;99.90;;;;;;7389327;19;20155;-79
2023/12/02 12:04:52;;;;;;;1.50;1.10;;;2.30;99.90;;;;;;7395664;19;20134;-78
2023/12/02 12:07:33;;;;;;;1.30;1.20;;;0.60;99.90;;;;;;7397523;19;20141;-78
2023/12/02 12:10:03;;;;;;;1.17;1.10;;;2.20;99.90;;;;;;7395472;19;20583;-81
2023/12/02 12:12:31;;;;;;;1.03;0.93;;;2.20;99.90;;;;;;7395700;19;20235;-80
2023/12/02 12:15:00;;;;;;;1.90;1.10;;;2.30;99.90;;;;;;7396979;19;20514;-79
2023/12/02 12:17:27;;;;;;;2.83;1.43;;;2.20;99.90;;;;;;7393682;19;20135;-80
2023/12/02 12:19:54;;;;;;;1.67;1.50;;;2.10;99.90;;;;;;7391556;19;20127;-82
2023/12/02 12:22:19;;;;;;;1.57;1.47;;;2.00;99.90;;;;;;7396297;19;20945;-83
2023/12/02 12:24:45;;;;;;;2.10;1.53;;;2.00;99.90;;;;;;7397162;19;20141;-82
2023/12/02 12:27:12;;;;;;;0.77;0.60;;;1.90;99.90;;;;;;7399526;19;20600;-81
2023/12/02 12:29:52;;;;;;;0.83;0.83;;;1.80;99.90;;;;;;7396489;19;20141;-81
2023/12/02 12:32:19;;;;;;;0.67;0.67;;;2.00;99.90;;;;;;7396252;19;20166;-80
2023/12/02 12:34:45;;;;;;;1.13;1.07;;;1.90;99.90;;;;;;7396113;19;20134;-81
2023/12/02 12:37:17;;;;;;;1.27;1.13;;;2.30;99.90;;;;;;7397040;19;20135;-81
2023/12/02 12:39:45;;;;;;;1.20;1.10;;;2.50;99.90;;;;;;7395345;19;20135;-80
2023/12/02 12:42:11;;;;;;;0.83;0.83;;;2.10;99.90;;;;;;7393211;19;20160;-81
2023/12/02 12:44:40;;;;;;;2.20;2.00;;;2.10;99.90;;;;;;7393325;19;20627;-81
2023/12/02 12:47:11;;;;;;;0.97;0.87;;;2.20;99.90;;;;;;7394166;19;20170;-79
2023/12/02 12:49:43;;;;;;;1.10;1.00;;;2.30;99.90;;;;;;7394657;19;20130;-80
2023/12/02 12:52:13;;;;;;;1.07;0.97;;;2.40;99.90;;;;;;7394336;19;20150;-79
2023/12/02 12:54:59;;;;;;;1.10;1.00;;;2.40;99.90;;;;;;7392842;19;21240;-80
2023/12/02 12:57:47;;;;;;;1.37;1.33;;;2.20;99.90;;;;;;7387415;19;20139;-79
2023/12/02 13:00:16;;;;;;;1.60;1.43;;;2.60;99.90;;;;;;7390389;19;20142;-79
2023/12/02 13:02:48;;;;;;;1.40;0.97;;;2.40;99.90;;;;;;7391432;19;20181;-78
2023/12/02 13:05:17;;;;;;;1.47;1.33;;;1.80;99.90;;;;;;7389120;19;20141;-80
2023/12/02 13:08:01;;;;;;;1.50;1.37;;;2.40;99.90;;;;;;7394552;19;20831;-80
2023/12/02 13:10:34;;;;;;;1.20;1.10;;;3.00;99.90;;;;;;7393817;19;20153;-80